PIB weather

Balancan Airstrip
Balancan, Tabasco, Mexico

Public forecast

Using degrees Celsius for public forecast. Weather courtesy of forecast.io.

Closest aviation weather report (METAR) to Balancan Airstrip

Report is more than 6 hours old.

Closest report is Palenque International Airport, 33.6 nm (62.2 km) SW. Retrieved 2019/12/13 00:46 UTC (9 hours ago):

MMPQ 130046Z 00000KT 7SM BKN030 24/22 A2992 RMK 8/500 HZY

Closest aviation forecast (TAF) to Balancan Airstrip

Closest forecast is Palenque International Airport, 33.6 nm (62.2 km) SW. Retrieved 2019/12/13 06:03 UTC (4 hours ago):

TAF MMPQ 130503Z 1306/1406 00000KT 6SM HZ BKN030 TEMPO 1310/1314 2SM BR BKN020 FM131600 06008KT P6SM SCT020 BKN250 FM132200 30008KT P6SM BKN030 FM140200 00000KT 6SM HZ BKN020